GMFO/OUD METAR and TAF weather

Enter ICAO airport designator
Station Type Date Time Source
GMFO METAR 2018/09/21 22:00 UTC NOAA

GMFO 212200Z 23003KT 180V240 CAVOK 20/14 Q1022 NOSIG


Station Type Date Time Source
GMFO Decoded METAR 2018/09/21 22:00 UTC NOAA

Oujda, Morocco (GMFO) 34-47N 001-56W 470M
Sep 21, 2018 - 06:00 PM EDT / 2018.09.21 2200 UTC
Wind: from the SW (230 degrees) at 3 MPH (3 KT) (direction variable):0
Visibility: greater than 7 mile(s):0
Temperature: 68 F (20 C)
Dew Point: 57 F (14 C)
Relative Humidity: 68%
Pressure (altimeter): 30.18 in. Hg (1022 hPa)
ob: GMFO 212200Z 23003KT 180V240 CAVOK 20/14 Q1022 NOSIG
cycle: 22

Station Type Date Time Source
GMFO TAF 2018/09/21 18:18 UTC NOAA

TAF GMFO 211700Z 2118/2224 32014KT CAVOK
TEMPO 2202/2207 22006KT
BECMG 2214/2218 36017KT 9999 SCT033


Example: see airport list